sensor_id;sensor_type;location;lat;lon;timestamp;temperature;humidity
36594;DHT22;22603;47.900;8.146;2023-04-03T00:02:03;2.80;99.90
36594;DHT22;22603;47.900;8.146;2023-04-03T00:04:50;2.80;99.90
36594;DHT22;22603;47.900;8.146;2023-04-03T00:07:36;2.80;99.90
36594;DHT22;22603;47.900;8.146;2023-04-03T00:10:23;2.70;99.90
36594;DHT22;22603;47.900;8.146;2023-04-03T00:13:11;2.80;99.90
36594;DHT22;22603;47.900;8.146;2023-04-03T00:15:58;2.80;99.90
36594;DHT22;22603;47.900;8.146;2023-04-03T00:18:46;2.80;99.90
36594;DHT22;22603;47.900;8.146;2023-04-03T00:21:33;2.80;99.90
36594;DHT22;22603;47.900;8.146;2023-04-03T00:24:20;2.80;99.90
36594;DHT22;22603;47.900;8.146;2023-04-03T00:27:08;2.80;99.90
36594;DHT22;22603;47.900;8.146;2023-04-03T00:29:54;2.70;99.90
36594;DHT22;22603;47.900;8.146;2023-04-03T00:32:42;2.70;99.90
36594;DHT22;22603;47.900;8.146;2023-04-03T00:35:30;2.70;99.90
36594;DHT22;22603;47.900;8.146;2023-04-03T00:38:17;2.50;99.90
36594;DHT22;22603;47.900;8.146;2023-04-03T00:41:04;2.50;99.90
36594;DHT22;22603;47.900;8.146;2023-04-03T00:43:51;2.50;99.90
36594;DHT22;22603;47.900;8.146;2023-04-03T00:46:38;2.40;99.90
36594;DHT22;22603;47.900;8.146;2023-04-03T00:49:26;2.40;99.90
36594;DHT22;22603;47.900;8.146;2023-04-03T00:52:17;2.40;99.90
36594;DHT22;22603;47.900;8.146;2023-04-03T00:55:07;2.30;99.90
36594;DHT22;22603;47.900;8.146;2023-04-03T00:57:56;2.30;99.90
36594;DHT22;22603;47.900;8.146;2023-04-03T01:00:48;2.40;99.90
36594;DHT22;22603;47.900;8.146;2023-04-03T01:03:41;2.30;99.90
36594;DHT22;22603;47.900;8.146;2023-04-03T01:06:30;2.30;99.90
36594;DHT22;22603;47.900;8.146;2023-04-03T01:09:19;2.30;99.90
36594;DHT22;22603;47.900;8.146;2023-04-03T01:12:13;2.30;99.90
36594;DHT22;22603;47.900;8.146;2023-04-03T01:15:04;2.40;99.90
36594;DHT22;22603;47.900;8.146;2023-04-03T01:17:52;2.40;99.90
36594;DHT22;22603;47.900;8.146;2023-04-03T01:24:25;2.40;99.90
36594;DHT22;22603;47.900;8.146;2023-04-03T01:27:16;2.40;99.90
36594;DHT22;22603;47.900;8.146;2023-04-03T01:30:05;2.40;99.90
36594;DHT22;22603;47.900;8.146;2023-04-03T01:32:53;2.40;99.90
36594;DHT22;22603;47.900;8.146;2023-04-03T01:35:41;2.40;99.90
36594;DHT22;22603;47.900;8.146;2023-04-03T01:38:29;2.30;99.90
36594;DHT22;22603;47.900;8.146;2023-04-03T01:41:16;2.30;99.90
36594;DHT22;22603;47.900;8.146;2023-04-03T01:44:05;2.30;99.90
36594;DHT22;22603;47.900;8.146;2023-04-03T01:46:58;2.30;99.90
36594;DHT22;22603;47.900;8.146;2023-04-03T01:49:52;2.40;99.90
36594;DHT22;22603;47.900;8.146;2023-04-03T01:52:48;2.30;99.90
36594;DHT22;22603;47.900;8.146;2023-04-03T01:55:38;2.40;99.90
36594;DHT22;22603;47.900;8.146;2023-04-03T01:58:33;2.30;99.90
36594;DHT22;22603;47.900;8.146;2023-04-03T02:01:26;2.40;99.90
36594;DHT22;22603;47.900;8.146;2023-04-03T02:04:15;2.40;99.90
36594;DHT22;22603;47.900;8.146;2023-04-03T02:07:12;2.30;99.90
36594;DHT22;22603;47.900;8.146;2023-04-03T02:10:03;2.30;99.90
36594;DHT22;22603;47.900;8.146;2023-04-03T02:12:57;2.40;99.90
36594;DHT22;22603;47.900;8.146;2023-04-03T02:15:50;2.30;99.90
36594;DHT22;22603;47.900;8.146;2023-04-03T02:18:37;2.10;99.90
36594;DHT22;22603;47.900;8.146;2023-04-03T02:21:24;2.00;99.90
36594;DHT22;22603;47.900;8.146;2023-04-03T02:24:12;1.90;99.90
36594;DHT22;22603;47.900;8.146;2023-04-03T02:27:00;1.90;99.90
36594;DHT22;22603;47.900;8.146;2023-04-03T02:29:47;1.80;99.90
36594;DHT22;22603;47.900;8.146;2023-04-03T02:32:45;1.90;99.90
36594;DHT22;22603;47.900;8.146;2023-04-03T02:35:39;1.80;99.90
36594;DHT22;22603;47.900;8.146;2023-04-03T02:38:31;1.80;99.90
36594;DHT22;22603;47.900;8.146;2023-04-03T02:41:29;1.80;99.90
36594;DHT22;22603;47.900;8.146;2023-04-03T02:47:07;1.80;99.90
36594;DHT22;22603;47.900;8.146;2023-04-03T02:49:54;1.80;99.90
36594;DHT22;22603;47.900;8.146;2023-04-03T02:52:41;1.80;99.90
36594;DHT22;22603;47.900;8.146;2023-04-03T02:55:28;1.70;99.90
36594;DHT22;22603;47.900;8.146;2023-04-03T02:58:17;1.70;99.90
36594;DHT22;22603;47.900;8.146;2023-04-03T03:01:05;1.70;99.90
36594;DHT22;22603;47.900;8.146;2023-04-03T03:03:51;1.60;99.90
36594;DHT22;22603;47.900;8.146;2023-04-03T03:06:38;1.60;99.90
36594;DHT22;22603;47.900;8.146;2023-04-03T03:09:27;1.60;99.90
36594;DHT22;22603;47.900;8.146;2023-04-03T03:12:14;1.60;99.90
36594;DHT22;22603;47.900;8.146;2023-04-03T03:15:03;1.50;99.90
36594;DHT22;22603;47.900;8.146;2023-04-03T03:17:50;1.60;99.90
36594;DHT22;22603;47.900;8.146;2023-04-03T03:20:37;1.60;99.90
36594;DHT22;22603;47.900;8.146;2023-04-03T03:23:25;1.60;99.90
36594;DHT22;22603;47.900;8.146;2023-04-03T03:26:12;1.50;99.90
36594;DHT22;22603;47.900;8.146;2023-04-03T03:29:00;1.40;99.90
36594;DHT22;22603;47.900;8.146;2023-04-03T03:31:48;1.40;99.90
36594;DHT22;22603;47.900;8.146;2023-04-03T03:34:35;1.50;99.90
36594;DHT22;22603;47.900;8.146;2023-04-03T03:37:21;1.40;99.90
36594;DHT22;22603;47.900;8.146;2023-04-03T03:40:10;1.50;99.90
36594;DHT22;22603;47.900;8.146;2023-04-03T03:42:58;1.50;99.90
36594;DHT22;22603;47.900;8.146;2023-04-03T03:45:46;1.50;99.90
36594;DHT22;22603;47.900;8.146;2023-04-03T03:48:37;1.40;99.90
36594;DHT22;22603;47.900;8.146;2023-04-03T03:51:24;1.50;99.90
36594;DHT22;22603;47.900;8.146;2023-04-03T03:54:11;1.50;99.90
36594;DHT22;22603;47.900;8.146;2023-04-03T03:56:57;1.40;99.90
36594;DHT22;22603;47.900;8.146;2023-04-03T03:59:44;1.40;99.90
36594;DHT22;22603;47.900;8.146;2023-04-03T04:02:32;1.50;99.90
36594;DHT22;22603;47.900;8.146;2023-04-03T04:05:21;1.40;99.90
36594;DHT22;22603;47.900;8.146;2023-04-03T04:08:08;1.40;99.90
36594;DHT22;22603;47.900;8.146;2023-04-03T04:10:55;1.40;99.90
36594;DHT22;22603;47.900;8.146;2023-04-03T04:13:42;1.30;99.90
36594;DHT22;22603;47.900;8.146;2023-04-03T04:16:28;1.30;99.90
36594;DHT22;22603;47.900;8.146;2023-04-03T04:19:16;1.30;99.90
36594;DHT22;22603;47.900;8.146;2023-04-03T04:22:04;1.40;99.90
36594;DHT22;22603;47.900;8.146;2023-04-03T04:24:50;1.40;99.90
36594;DHT22;22603;47.900;8.146;2023-04-03T04:27:37;1.40;99.90
36594;DHT22;22603;47.900;8.146;2023-04-03T04:30:25;1.40;99.90
36594;DHT22;22603;47.900;8.146;2023-04-03T04:33:13;1.40;99.90
36594;DHT22;22603;47.900;8.146;2023-04-03T04:36:00;1.40;99.90
36594;DHT22;22603;47.900;8.146;2023-04-03T04:38:48;1.40;99.90
36594;DHT22;22603;47.900;8.146;2023-04-03T04:41:38;1.30;99.90
36594;DHT22;22603;47.900;8.146;2023-04-03T04:44:25;1.30;99.90
36594;DHT22;22603;47.900;8.146;2023-04-03T04:47:12;1.30;99.90
36594;DHT22;22603;47.900;8.146;2023-04-03T04:49:59;1.30;99.90
36594;DHT22;22603;47.900;8.146;2023-04-03T04:52:46;1.30;99.90
36594;DHT22;22603;47.900;8.146;2023-04-03T04:55:34;1.20;99.90
36594;DHT22;22603;47.900;8.146;2023-04-03T04:58:21;1.20;99.90
36594;DHT22;22603;47.900;8.146;2023-04-03T05:01:10;1.30;99.90
36594;DHT22;22603;47.900;8.146;2023-04-03T05:03:57;1.30;99.90
36594;DHT22;22603;47.900;8.146;2023-04-03T05:06:44;1.30;99.90
36594;DHT22;22603;47.900;8.146;2023-04-03T05:09:31;1.30;99.90
36594;DHT22;22603;47.900;8.146;2023-04-03T05:12:19;1.20;99.90
36594;DHT22;22603;47.900;8.146;2023-04-03T05:15:07;1.20;99.90
36594;DHT22;22603;47.900;8.146;2023-04-03T05:17:54;1.20;99.90
36594;DHT22;22603;47.900;8.146;2023-04-03T05:20:41;1.20;99.90
36594;DHT22;22603;47.900;8.146;2023-04-03T05:23:28;1.20;99.90
36594;DHT22;22603;47.900;8.146;2023-04-03T05:26:15;1.20;99.90
36594;DHT22;22603;47.900;8.146;2023-04-03T05:29:04;1.20;99.90
36594;DHT22;22603;47.900;8.146;2023-04-03T05:31:50;1.10;99.90
36594;DHT22;22603;47.900;8.146;2023-04-03T05:34:37;1.10;99.90
36594;DHT22;22603;47.900;8.146;2023-04-03T05:37:24;1.10;99.90
36594;DHT22;22603;47.900;8.146;2023-04-03T05:40:11;1.20;99.90
36594;DHT22;22603;47.900;8.146;2023-04-03T05:42:58;1.20;99.90
36594;DHT22;22603;47.900;8.146;2023-04-03T05:45:47;1.20;99.90
36594;DHT22;22603;47.900;8.146;2023-04-03T05:48:34;1.20;99.90
36594;DHT22;22603;47.900;8.146;2023-04-03T05:51:27;1.20;99.90
36594;DHT22;22603;47.900;8.146;2023-04-03T05:54:18;1.30;99.90
36594;DHT22;22603;47.900;8.146;2023-04-03T05:57:06;1.30;99.90
36594;DHT22;22603;47.900;8.146;2023-04-03T05:59:53;1.30;99.90
36594;DHT22;22603;47.900;8.146;2023-04-03T06:02:42;1.30;99.90
36594;DHT22;22603;47.900;8.146;2023-04-03T06:05:30;1.30;99.90
36594;DHT22;22603;47.900;8.146;2023-04-03T06:08:17;1.20;99.90
36594;DHT22;22603;47.900;8.146;2023-04-03T06:11:03;1.20;99.90
36594;DHT22;22603;47.900;8.146;2023-04-03T06:13:51;1.20;99.90
36594;DHT22;22603;47.900;8.146;2023-04-03T06:16:38;1.20;99.90
36594;DHT22;22603;47.900;8.146;2023-04-03T06:19:27;1.30;99.90
36594;DHT22;22603;47.900;8.146;2023-04-03T06:22:14;1.30;99.90
36594;DHT22;22603;47.900;8.146;2023-04-03T06:25:02;1.30;99.90
36594;DHT22;22603;47.900;8.146;2023-04-03T06:27:49;1.20;99.90
36594;DHT22;22603;47.900;8.146;2023-04-03T06:30:36;1.20;99.90
36594;DHT22;22603;47.900;8.146;2023-04-03T06:33:24;1.20;99.90
36594;DHT22;22603;47.900;8.146;2023-04-03T06:36:12;1.20;99.90
36594;DHT22;22603;47.900;8.146;2023-04-03T06:39:00;1.20;99.90
36594;DHT22;22603;47.900;8.146;2023-04-03T06:41:47;1.20;99.90
36594;DHT22;22603;47.900;8.146;2023-04-03T06:44:34;1.20;99.90
36594;DHT22;22603;47.900;8.146;2023-04-03T06:47:21;1.10;99.90
36594;DHT22;22603;47.900;8.146;2023-04-03T06:50:10;1.10;99.90
36594;DHT22;22603;47.900;8.146;2023-04-03T06:53:00;1.00;99.90
36594;DHT22;22603;47.900;8.146;2023-04-03T06:55:49;0.80;99.90
36594;DHT22;22603;47.900;8.146;2023-04-03T06:58:36;0.90;99.90
36594;DHT22;22603;47.900;8.146;2023-04-03T07:01:23;1.00;99.90
36594;DHT22;22603;47.900;8.146;2023-04-03T07:04:10;1.10;99.90
36594;DHT22;22603;47.900;8.146;2023-04-03T07:06:58;0.90;99.90
36594;DHT22;22603;47.900;8.146;2023-04-03T07:09:46;0.80;99.90
36594;DHT22;22603;47.900;8.146;2023-04-03T07:12:33;0.80;99.90
36594;DHT22;22603;47.900;8.146;2023-04-03T07:15:20;0.80;99.90
36594;DHT22;22603;47.900;8.146;2023-04-03T07:18:07;0.90;99.90
36594;DHT22;22603;47.900;8.146;2023-04-03T07:20:55;0.90;99.90
36594;DHT22;22603;47.900;8.146;2023-04-03T07:23:42;1.00;99.90
36594;DHT22;22603;47.900;8.146;2023-04-03T07:26:30;0.90;99.90
36594;DHT22;22603;47.900;8.146;2023-04-03T07:29:17;0.90;99.90
36594;DHT22;22603;47.900;8.146;2023-04-03T07:32:04;1.00;99.90
36594;DHT22;22603;47.900;8.146;2023-04-03T07:34:52;1.00;99.90
36594;DHT22;22603;47.900;8.146;2023-04-03T07:37:39;1.20;99.90
36594;DHT22;22603;47.900;8.146;2023-04-03T07:40:26;1.10;99.90
36594;DHT22;22603;47.900;8.146;2023-04-03T07:43:17;1.00;99.90
36594;DHT22;22603;47.900;8.146;2023-04-03T07:46:05;0.90;99.90
36594;DHT22;22603;47.900;8.146;2023-04-03T07:48:52;0.90;99.90
36594;DHT22;22603;47.900;8.146;2023-04-03T07:51:41;1.00;99.90
36594;DHT22;22603;47.900;8.146;2023-04-03T07:54:28;0.90;99.90
36594;DHT22;22603;47.900;8.146;2023-04-03T07:57:16;0.70;99.90
36594;DHT22;22603;47.900;8.146;2023-04-03T08:00:05;0.70;99.90
36594;DHT22;22603;47.900;8.146;2023-04-03T08:02:52;0.50;99.90
36594;DHT22;22603;47.900;8.146;2023-04-03T08:05:41;0.50;99.90
36594;DHT22;22603;47.900;8.146;2023-04-03T08:08:28;0.60;99.90
36594;DHT22;22603;47.900;8.146;2023-04-03T08:11:16;0.60;99.90
36594;DHT22;22603;47.900;8.146;2023-04-03T08:14:04;0.60;99.90
36594;DHT22;22603;47.900;8.146;2023-04-03T08:16:52;0.50;99.90
36594;DHT22;22603;47.900;8.146;2023-04-03T08:19:40;0.40;99.90
36594;DHT22;22603;47.900;8.146;2023-04-03T08:22:27;0.50;99.90
36594;DHT22;22603;47.900;8.146;2023-04-03T08:25:14;0.50;99.90
36594;DHT22;22603;47.900;8.146;2023-04-03T08:28:02;0.40;99.90
36594;DHT22;22603;47.900;8.146;2023-04-03T08:30:49;0.50;99.90
36594;DHT22;22603;47.900;8.146;2023-04-03T08:33:39;0.40;99.90
36594;DHT22;22603;47.900;8.146;2023-04-03T08:36:28;0.50;99.90
36594;DHT22;22603;47.900;8.146;2023-04-03T08:39:14;0.40;99.90
36594;DHT22;22603;47.900;8.146;2023-04-03T08:42:05;0.50;99.90
36594;DHT22;22603;47.900;8.146;2023-04-03T08:44:57;0.50;99.90
36594;DHT22;22603;47.900;8.146;2023-04-03T08:47:49;0.70;99.90
36594;DHT22;22603;47.900;8.146;2023-04-03T08:50:45;0.90;99.90
36594;DHT22;22603;47.900;8.146;2023-04-03T08:53:36;1.10;99.90
36594;DHT22;22603;47.900;8.146;2023-04-03T08:56:26;1.30;99.90
36594;DHT22;22603;47.900;8.146;2023-04-03T09:02:24;1.80;99.90
36594;DHT22;22603;47.900;8.146;2023-04-03T09:05:14;2.10;99.90
36594;DHT22;22603;47.900;8.146;2023-04-03T09:08:07;2.20;99.90
36594;DHT22;22603;47.900;8.146;2023-04-03T09:11:12;2.20;99.90
36594;DHT22;22603;47.900;8.146;2023-04-03T09:14:09;1.90;99.90
36594;DHT22;22603;47.900;8.146;2023-04-03T09:17:02;1.80;99.90
36594;DHT22;22603;47.900;8.146;2023-04-03T09:19:57;2.00;99.90
36594;DHT22;22603;47.900;8.146;2023-04-03T09:22:44;2.00;99.90
36594;DHT22;22603;47.900;8.146;2023-04-03T09:25:38;2.10;99.90
36594;DHT22;22603;47.900;8.146;2023-04-03T09:28:26;2.00;99.90
36594;DHT22;22603;47.900;8.146;2023-04-03T09:31:22;2.00;99.90
36594;DHT22;22603;47.900;8.146;2023-04-03T09:34:23;1.90;99.90
36594;DHT22;22603;47.900;8.146;2023-04-03T09:37:37;2.00;99.90
36594;DHT22;22603;47.900;8.146;2023-04-03T09:40:34;2.10;99.90
36594;DHT22;22603;47.900;8.146;2023-04-03T09:43:27;2.10;99.90
36594;DHT22;22603;47.900;8.146;2023-04-03T09:46:33;2.10;99.90
36594;DHT22;22603;47.900;8.146;2023-04-03T09:49:20;2.00;99.90
36594;DHT22;22603;47.900;8.146;2023-04-03T09:52:19;2.10;99.90
36594;DHT22;22603;47.900;8.146;2023-04-03T09:55:13;2.00;99.90
36594;DHT22;22603;47.900;8.146;2023-04-03T09:58:02;2.20;99.90
36594;DHT22;22603;47.900;8.146;2023-04-03T10:00:54;2.30;99.90
36594;DHT22;22603;47.900;8.146;2023-04-03T10:03:41;2.30;99.90
36594;DHT22;22603;47.900;8.146;2023-04-03T10:06:34;2.40;99.90
36594;DHT22;22603;47.900;8.146;2023-04-03T10:09:24;2.20;99.90
36594;DHT22;22603;47.900;8.146;2023-04-03T10:12:15;2.30;99.90
36594;DHT22;22603;47.900;8.146;2023-04-03T10:15:12;2.20;99.90
36594;DHT22;22603;47.900;8.146;2023-04-03T10:18:02;2.40;99.90
36594;DHT22;22603;47.900;8.146;2023-04-03T10:21:13;2.40;99.90
36594;DHT22;22603;47.900;8.146;2023-04-03T10:24:14;2.30;99.90
36594;DHT22;22603;47.900;8.146;2023-04-03T10:27:08;2.20;99.90
36594;DHT22;22603;47.900;8.146;2023-04-03T10:30:04;2.20;99.90
36594;DHT22;22603;47.900;8.146;2023-04-03T10:33:06;2.20;99.90
36594;DHT22;22603;47.900;8.146;2023-04-03T10:36:07;2.30;99.90
36594;DHT22;22603;47.900;8.146;2023-04-03T10:39:02;2.20;99.90
36594;DHT22;22603;47.900;8.146;2023-04-03T10:42:02;2.40;99.90
36594;DHT22;22603;47.900;8.146;2023-04-03T10:45:15;2.50;99.90
36594;DHT22;22603;47.900;8.146;2023-04-03T10:48:09;2.60;99.90
36594;DHT22;22603;47.900;8.146;2023-04-03T10:51:01;2.60;99.90
36594;DHT22;22603;47.900;8.146;2023-04-03T10:53:57;2.80;99.90
36594;DHT22;22603;47.900;8.146;2023-04-03T10:56:48;2.80;99.90
36594;DHT22;22603;47.900;8.146;2023-04-03T10:59:47;2.80;99.90
36594;DHT22;22603;47.900;8.146;2023-04-03T11:02:41;2.90;99.90
36594;DHT22;22603;47.900;8.146;2023-04-03T11:05:37;2.70;99.90
36594;DHT22;22603;47.900;8.146;2023-04-03T11:08:28;2.80;99.90
36594;DHT22;22603;47.900;8.146;2023-04-03T11:11:22;3.00;99.90
36594;DHT22;22603;47.900;8.146;2023-04-03T11:14:17;3.20;99.90
36594;DHT22;22603;47.900;8.146;2023-04-03T11:17:15;3.10;99.90
36594;DHT22;22603;47.900;8.146;2023-04-03T11:20:14;3.20;99.90
36594;DHT22;22603;47.900;8.146;2023-04-03T11:23:04;3.10;99.90
36594;DHT22;22603;47.900;8.146;2023-04-03T11:26:05;3.20;99.90
36594;DHT22;22603;47.900;8.146;2023-04-03T11:28:57;3.10;99.90
36594;DHT22;22603;47.900;8.146;2023-04-03T11:32:01;3.20;99.90
36594;DHT22;22603;47.900;8.146;2023-04-03T11:34:52;3.20;99.90
36594;DHT22;22603;47.900;8.146;2023-04-03T11:37:48;3.20;99.90
36594;DHT22;22603;47.900;8.146;2023-04-03T11:40:37;3.00;99.90
36594;DHT22;22603;47.900;8.146;2023-04-03T11:43:28;3.00;99.90
36594;DHT22;22603;47.900;8.146;2023-04-03T11:46:17;3.00;99.90
36594;DHT22;22603;47.900;8.146;2023-04-03T11:49:08;3.10;99.90
36594;DHT22;22603;47.900;8.146;2023-04-03T11:55:55;3.00;99.90
36594;DHT22;22603;47.900;8.146;2023-04-03T12:02:35;3.20;99.90
36594;DHT22;22603;47.900;8.146;2023-04-03T12:05:37;3.30;99.90
36594;DHT22;22603;47.900;8.146;2023-04-03T12:08:26;3.20;99.90
36594;DHT22;22603;47.900;8.146;2023-04-03T12:11:23;3.30;99.90
36594;DHT22;22603;47.900;8.146;2023-04-03T12:14:15;3.40;99.90
36594;DHT22;22603;47.900;8.146;2023-04-03T12:17:12;3.20;99.90
36594;DHT22;22603;47.900;8.146;2023-04-03T12:23:32;3.20;99.90
36594;DHT22;22603;47.900;8.146;2023-04-03T12:26:22;3.20;99.90
36594;DHT22;22603;47.900;8.146;2023-04-03T12:29:22;3.30;99.90
36594;DHT22;22603;47.900;8.146;2023-04-03T12:32:17;3.30;99.90
36594;DHT22;22603;47.900;8.146;2023-04-03T12:35:16;3.30;99.90
36594;DHT22;22603;47.900;8.146;2023-04-03T12:38:33;3.20;99.90
36594;DHT22;22603;47.900;8.146;2023-04-03T12:41:36;3.30;99.90
36594;DHT22;22603;47.900;8.146;2023-04-03T12:44:35;3.20;99.90
36594;DHT22;22603;47.900;8.146;2023-04-03T12:47:27;3.20;99.90
36594;DHT22;22603;47.900;8.146;2023-04-03T12:50:21;3.10;99.90
36594;DHT22;22603;47.900;8.146;2023-04-03T12:53:13;2.90;99.90
36594;DHT22;22603;47.900;8.146;2023-04-03T12:56:19;2.90;99.90
36594;DHT22;22603;47.900;8.146;2023-04-03T12:59:16;3.10;99.90
36594;DHT22;22603;47.900;8.146;2023-04-03T13:02:18;3.30;99.90
36594;DHT22;22603;47.900;8.146;2023-04-03T13:05:08;3.50;99.90
36594;DHT22;22603;47.900;8.146;2023-04-03T13:07:59;3.50;99.90
36594;DHT22;22603;47.900;8.146;2023-04-03T13:10:54;3.50;99.90
36594;DHT22;22603;47.900;8.146;2023-04-03T13:13:54;3.50;99.90
36594;DHT22;22603;47.900;8.146;2023-04-03T13:16:53;3.40;99.90
36594;DHT22;22603;47.900;8.146;2023-04-03T13:19:41;3.10;99.90
36594;DHT22;22603;47.900;8.146;2023-04-03T13:22:31;3.10;99.90
36594;DHT22;22603;47.900;8.146;2023-04-03T13:25:27;3.10;99.90
36594;DHT22;22603;47.900;8.146;2023-04-03T13:28:18;3.40;99.90
36594;DHT22;22603;47.900;8.146;2023-04-03T13:31:13;3.30;99.90
36594;DHT22;22603;47.900;8.146;2023-04-03T13:34:07;3.30;99.90
36594;DHT22;22603;47.900;8.146;2023-04-03T13:36:59;3.30;99.90
36594;DHT22;22603;47.900;8.146;2023-04-03T13:39:58;3.20;99.90
36594;DHT22;22603;47.900;8.146;2023-04-03T13:42:45;3.20;99.90
36594;DHT22;22603;47.900;8.146;2023-04-03T13:45:35;3.10;99.90
36594;DHT22;22603;47.900;8.146;2023-04-03T13:48:23;3.10;99.90
36594;DHT22;22603;47.900;8.146;2023-04-03T13:51:24;3.00;99.90
36594;DHT22;22603;47.900;8.146;2023-04-03T13:54:18;3.00;99.90
36594;DHT22;22603;47.900;8.146;2023-04-03T13:57:13;3.10;99.90
36594;DHT22;22603;47.900;8.146;2023-04-03T14:00:20;3.30;99.90
36594;DHT22;22603;47.900;8.146;2023-04-03T14:03:16;3.30;99.90
36594;DHT22;22603;47.900;8.146;2023-04-03T14:06:06;3.40;99.90
36594;DHT22;22603;47.900;8.146;2023-04-03T14:08:55;3.50;99.90
36594;DHT22;22603;47.900;8.146;2023-04-03T14:11:43;3.40;99.90
36594;DHT22;22603;47.900;8.146;2023-04-03T14:14:32;3.60;99.90
36594;DHT22;22603;47.900;8.146;2023-04-03T14:17:22;3.70;99.90
36594;DHT22;22603;47.900;8.146;2023-04-03T14:20:14;3.70;99.90
36594;DHT22;22603;47.900;8.146;2023-04-03T14:23:02;3.80;99.90
36594;DHT22;22603;47.900;8.146;2023-04-03T14:25:50;3.60;99.90
36594;DHT22;22603;47.900;8.146;2023-04-03T14:28:37;3.40;99.90
36594;DHT22;22603;47.900;8.146;2023-04-03T14:31:28;3.20;99.90
36594;DHT22;22603;47.900;8.146;2023-04-03T14:34:16;3.20;99.90
36594;DHT22;22603;47.900;8.146;2023-04-03T14:37:04;3.00;99.90
36594;DHT22;22603;47.900;8.146;2023-04-03T14:39:52;3.10;99.90
36594;DHT22;22603;47.900;8.146;2023-04-03T14:42:41;3.20;99.90
36594;DHT22;22603;47.900;8.146;2023-04-03T14:45:28;3.30;99.90
36594;DHT22;22603;47.900;8.146;2023-04-03T14:48:18;3.10;99.90
36594;DHT22;22603;47.900;8.146;2023-04-03T14:51:06;3.10;99.90
36594;DHT22;22603;47.900;8.146;2023-04-03T14:53:53;3.00;99.90
36594;DHT22;22603;47.900;8.146;2023-04-03T14:56:41;3.00;99.90
36594;DHT22;22603;47.900;8.146;2023-04-03T14:59:31;2.90;99.90
36594;DHT22;22603;47.900;8.146;2023-04-03T15:02:28;2.90;99.90
36594;DHT22;22603;47.900;8.146;2023-04-03T15:05:16;2.90;99.90
36594;DHT22;22603;47.900;8.146;2023-04-03T15:08:13;2.80;99.90
36594;DHT22;22603;47.900;8.146;2023-04-03T15:11:09;2.80;99.90
36594;DHT22;22603;47.900;8.146;2023-04-03T15:13:59;2.60;99.90
36594;DHT22;22603;47.900;8.146;2023-04-03T15:16:49;2.70;99.90
36594;DHT22;22603;47.900;8.146;2023-04-03T15:19:38;2.70;99.90
36594;DHT22;22603;47.900;8.146;2023-04-03T15:22:26;2.70;99.90
36594;DHT22;22603;47.900;8.146;2023-04-03T15:25:14;2.70;99.90
36594;DHT22;22603;47.900;8.146;2023-04-03T15:28:06;2.70;99.90
36594;DHT22;22603;47.900;8.146;2023-04-03T15:30:57;2.80;99.90
36594;DHT22;22603;47.900;8.146;2023-04-03T15:33:46;2.90;99.90
36594;DHT22;22603;47.900;8.146;2023-04-03T15:36:33;2.80;99.90
36594;DHT22;22603;47.900;8.146;2023-04-03T15:39:21;2.80;99.90
36594;DHT22;22603;47.900;8.146;2023-04-03T15:42:09;2.80;99.90
36594;DHT22;22603;47.900;8.146;2023-04-03T15:45:05;2.80;99.90
36594;DHT22;22603;47.900;8.146;2023-04-03T15:47:53;2.70;99.90
36594;DHT22;22603;47.900;8.146;2023-04-03T15:50:42;2.60;99.90
36594;DHT22;22603;47.900;8.146;2023-04-03T15:53:30;2.80;99.90
36594;DHT22;22603;47.900;8.146;2023-04-03T15:56:20;2.40;99.90
36594;DHT22;22603;47.900;8.146;2023-04-03T15:59:07;2.50;99.90
36594;DHT22;22603;47.900;8.146;2023-04-03T16:01:54;2.40;99.90
36594;DHT22;22603;47.900;8.146;2023-04-03T16:04:42;2.40;99.90
36594;DHT22;22603;47.900;8.146;2023-04-03T16:07:31;2.30;99.90
36594;DHT22;22603;47.900;8.146;2023-04-03T16:10:19;2.20;99.90
36594;DHT22;22603;47.900;8.146;2023-04-03T16:13:06;2.30;99.90
36594;DHT22;22603;47.900;8.146;2023-04-03T16:15:55;2.30;99.90
36594;DHT22;22603;47.900;8.146;2023-04-03T16:18:42;2.30;99.90
36594;DHT22;22603;47.900;8.146;2023-04-03T16:21:33;2.20;99.90
36594;DHT22;22603;47.900;8.146;2023-04-03T16:24:22;2.30;99.90
36594;DHT22;22603;47.900;8.146;2023-04-03T16:27:10;2.40;99.90
36594;DHT22;22603;47.900;8.146;2023-04-03T16:30:00;2.20;99.90
36594;DHT22;22603;47.900;8.146;2023-04-03T16:32:47;2.20;99.90
36594;DHT22;22603;47.900;8.146;2023-04-03T16:35:39;2.20;99.90
36594;DHT22;22603;47.900;8.146;2023-04-03T16:38:29;2.10;99.90
36594;DHT22;22603;47.900;8.146;2023-04-03T16:41:18;1.90;99.90
36594;DHT22;22603;47.900;8.146;2023-04-03T16:44:05;2.00;99.90
36594;DHT22;22603;47.900;8.146;2023-04-03T16:46:54;2.00;99.90
36594;DHT22;22603;47.900;8.146;2023-04-03T16:49:42;2.00;99.90
36594;DHT22;22603;47.900;8.146;2023-04-03T16:52:30;2.00;99.90
36594;DHT22;22603;47.900;8.146;2023-04-03T16:55:18;1.90;99.90
36594;DHT22;22603;47.900;8.146;2023-04-03T16:58:11;1.90;99.90
36594;DHT22;22603;47.900;8.146;2023-04-03T17:00:58;1.80;99.90
36594;DHT22;22603;47.900;8.146;2023-04-03T17:03:46;1.90;99.90
36594;DHT22;22603;47.900;8.146;2023-04-03T17:06:34;1.90;99.90
36594;DHT22;22603;47.900;8.146;2023-04-03T17:09:22;1.80;99.90
36594;DHT22;22603;47.900;8.146;2023-04-03T17:12:10;1.90;99.90
36594;DHT22;22603;47.900;8.146;2023-04-03T17:14:58;1.90;99.90
36594;DHT22;22603;47.900;8.146;2023-04-03T17:17:46;1.80;99.90
36594;DHT22;22603;47.900;8.146;2023-04-03T17:20:34;1.70;99.90
36594;DHT22;22603;47.900;8.146;2023-04-03T17:23:24;1.70;99.90
36594;DHT22;22603;47.900;8.146;2023-04-03T17:26:13;1.70;99.90
36594;DHT22;22603;47.900;8.146;2023-04-03T17:29:01;1.70;99.90
36594;DHT22;22603;47.900;8.146;2023-04-03T17:31:52;1.70;99.90
36594;DHT22;22603;47.900;8.146;2023-04-03T17:34:40;1.70;99.90
36594;DHT22;22603;47.900;8.146;2023-04-03T17:37:28;1.70;99.90
36594;DHT22;22603;47.900;8.146;2023-04-03T17:40:15;1.70;99.90
36594;DHT22;22603;47.900;8.146;2023-04-03T17:43:04;1.60;99.90
36594;DHT22;22603;47.900;8.146;2023-04-03T17:45:52;1.50;99.90
36594;DHT22;22603;47.900;8.146;2023-04-03T17:48:43;1.40;99.90
36594;DHT22;22603;47.900;8.146;2023-04-03T17:51:31;1.30;99.90
36594;DHT22;22603;47.900;8.146;2023-04-03T17:54:19;1.30;99.90
36594;DHT22;22603;47.900;8.146;2023-04-03T17:57:07;1.30;99.90
36594;DHT22;22603;47.900;8.146;2023-04-03T17:59:54;1.30;99.90
36594;DHT22;22603;47.900;8.146;2023-04-03T18:02:42;1.40;99.90
36594;DHT22;22603;47.900;8.146;2023-04-03T18:05:32;1.20;99.90
36594;DHT22;22603;47.900;8.146;2023-04-03T18:08:19;1.30;99.90
36594;DHT22;22603;47.900;8.146;2023-04-03T18:11:08;1.20;99.90
36594;DHT22;22603;47.900;8.146;2023-04-03T18:13:59;1.10;99.90
36594;DHT22;22603;47.900;8.146;2023-04-03T18:16:48;1.00;99.90
36594;DHT22;22603;47.900;8.146;2023-04-03T18:19:35;1.00;99.90
36594;DHT22;22603;47.900;8.146;2023-04-03T18:22:31;0.80;99.90
36594;DHT22;22603;47.900;8.146;2023-04-03T18:25:19;0.80;99.90
36594;DHT22;22603;47.900;8.146;2023-04-03T18:28:07;0.70;99.90
36594;DHT22;22603;47.900;8.146;2023-04-03T18:30:55;0.60;99.90
36594;DHT22;22603;47.900;8.146;2023-04-03T18:33:43;0.50;99.90